Etusivu
METAR-TAF:

METAR-TAF

Lentoasemat :

Ghadamés, Libya

Leveyspiiri: 30-08N, Pituuspiiri: 009-30E, korkeus merenpinnasta: 346 m

METAR: puuttuu

Aika: 16:04 (14:04 UTC)

Sääennuste

Tämä raportti tehtiin 33 tuntia ja 4 minuuttia sitten, kello 05.00 UTC
Ennuste voimassa 14. päivästä klo 06 UTC - 14. päivään klo 15 UTC
Tuuli 12 kn idästä/koillisesta
Näkyvyys: 8000 m

TAF: HLTD 140500Z 1406/1415 06012KT 8000 NSC

Säähavainnot ja -ennusteet yli 4000 lentoasemalta (METAR- ja TAF-raportit).

Käytössä olevat sääasemat on merkitty karttaan keltaisilla ja punaisilla pisteillä.

Aseta hiiri pisteen päälle nähdäksesi sääaseman nimen.

Klikkaa sitten nähdäksesi säähavainnot ja -ennusteet.

Kartan vaihtaminen: klikkaa mustalla rastilla varustettuja vihreitä pisteitä, niin voit zoomata sisään; viivalla varustettua vihreää pistettä, niin voit zoomata ulos tai vihreitä nuolia, niin pääset viereisille kartoille.


METAR-TAF: